Avalon Express — WDD7919 — position and weather

sailwx.info

Track history (hours):
 
Tides and Currents Weather Stations Pressure Air Temp Water Temp Dewpoint Dewpoint Depression Visibility Wind Speed Wind Dir Waves Ship Positions

Avalon Express

Owner: RGWT INC, San Pedro, CA. More information available from US FCC via Universal Licensing System and Coast Guard Vessel Documentation Center.

Last reported at 2016-Aug-28 20:33 UTC. Time now 2016-Aug-28 20:39 UTC.
Position N 33°45' W 118°16'.

Type: High speed craft. MMSI: 367192940.

Date/timePositionNaut miles runAvg speedWind from/ knotsBaromVisibWave heightAir tempDewpointWater temp
2016-Aug-28 20:33N 33°45' W 118°16'0 0.0
2016-Aug-28 19:33N 33°45' W 118°16'2118.5
2016-Aug-28 18:25N 33°24' W 118°19'1 1.0
2016-Aug-28 17:33N 33°25' W 118°18'2018.7
2016-Aug-28 16:28N 33°45' W 118°16'0 0.0
2016-Aug-28 01:14N 33°45' W 118°16'0 0.0
2016-Aug-28 00:27N 33°45' W 118°16'7 1.1
2016-Aug-27 18:25N 33°38' W 118°15'1814.4
2016-Aug-27 17:11N 33°21' W 118°19'1524.3
2016-Aug-27 16:33N 33°36' W 118°16'9 6.2
2016-Aug-27 15:09N 33°45' W 118°16'0 0.1
2016-Aug-27 14:33N 33°45' W 118°16'0 0.0
2016-Aug-27 13:33N 33°45' W 118°16'20 1.7
2016-Aug-27 01:32N 33°25' W 118°18'2010.2
2016-Aug-26 23:33N 33°45' W 118°16'2411.9
2016-Aug-26 21:33N 33°21' W 118°19'21 7.0
2016-Aug-26 18:32N 33°42' W 118°15'3 1.3
2016-Aug-26 16:34N 33°40' W 118°15'5 1.7
2016-Aug-26 13:27N 33°45' W 118°16'0 0.1
2016-Aug-26 12:32N 33°45' W 118°16'0 0.0
2016-Aug-26 03:25N 33°45' W 118°16'0 0.1
2016-Aug-26 02:33N 33°45' W 118°16'6 6.0
2016-Aug-26 01:31N 33°39' W 118°16'1815.3
2016-Aug-26 00:20N 33°21' W 118°19'2212.3
2016-Aug-25 22:33N 33°42' W 118°15'3 2.7
2016-Aug-25 21:33N 33°45' W 118°16'2 2.1
2016-Aug-25 20:23N 33°43' W 118°15'2018.8
2016-Aug-25 19:19N 33°28' W 118°31'910.3
2016-Aug-25 18:25N 33°35' W 118°24'1213.7
2016-Aug-25 17:33N 33°45' W 118°16'0 0.1
2016-Aug-25 16:32N 33°45' W 118°16'0 0.0
2016-Aug-25 15:33N 33°45' W 118°16'0 0.0
2016-Aug-25 14:31N 33°45' W 118°16'0 0.0
2016-Aug-25 13:33N 33°45' W 118°16'0 0.0
2016-Aug-25 12:33N 33°45' W 118°16'0 0.0
2016-Aug-25 03:34N 33°45' W 118°16'0 0.1
2016-Aug-25 02:34N 33°45' W 118°16'5 5.4
2016-Aug-25 01:33N 33°40' W 118°15'1918.5
2016-Aug-25 00:30N 33°21' W 118°19'11 9.7
2016-Aug-24 23:24N 33°27' W 118°30'2023.4
2016-Aug-24 22:33N 33°43' W 118°16'2 1.6
2016-Aug-24 21:33N 33°45' W 118°16'2 2.1
2016-Aug-24 20:33N 33°43' W 118°16'2222.4
2016-Aug-24 19:33N 33°21' W 118°19'10 9.8
2016-Aug-24 18:33N 33°30' W 118°18'1513.7
2016-Aug-24 17:30N 33°45' W 118°16'0 0.1
2016-Aug-24 16:34N 33°45' W 118°16'0 0.0
2016-Aug-24 15:33N 33°45' W 118°16'0 0.0
2016-Aug-24 14:33N 33°45' W 118°16'0 0.1
2016-Aug-24 13:33N 33°45' W 118°16'0 0.0
2016-Aug-24 12:33N 33°45' W 118°16'0 0.0
2016-Aug-23 19:33N 33°45' W 118°16'0 0.0
2016-Aug-23 18:34N 33°45' W 118°16'0 0.0
2016-Aug-23 17:33N 33°45' W 118°16'0 0.1
2016-Aug-23 16:34N 33°45' W 118°16'0 0.0
2016-Aug-23 15:33N 33°45' W 118°16'0 0.0
2016-Aug-23 14:33N 33°45' W 118°16'0 0.0
2016-Aug-23 13:33N 33°45' W 118°16'0 0.1
2016-Aug-23 12:34N 33°45' W 118°16'0 0.0
2016-Aug-22 23:33N 33°45' W 118°16'0 0.0
2016-Aug-22 15:33N 33°45' W 118°16'0 0.1
2016-Aug-22 14:34N 33°45' W 118°16'0 0.0
2016-Aug-22 13:34N 33°45' W 118°16'0 0.0
2016-Aug-22 12:33N 33°45' W 118°16'0 0.0
2016-Aug-22 06:34N 33°45' W 118°16'0 0.0
2016-Aug-22 05:31N 33°45' W 118°16'0 0.0
2016-Aug-22 04:34N 33°45' W 118°16'1919.1
2016-Aug-22 03:34N 33°26' W 118°18'0 0.2
2016-Aug-22 02:33N 33°26' W 118°18'1918.9
2016-Aug-22 01:33N 33°45' W 118°16'0 0.0
2016-Aug-22 00:33N 33°45' W 118°16'0 0.0
2016-Aug-21 23:33N 33°45' W 118°16'0 0.0
2016-Aug-21 22:33N 33°45' W 118°16'3 3.2
2016-Aug-21 21:34N 33°42' W 118°15'1917.7
2016-Aug-21 20:28N 33°28' W 118°31'1212.8
2016-Aug-21 19:33N 33°21' W 118°20'0 0.3
2016-Aug-21 18:33N 33°21' W 118°20'2 2.1
2016-Aug-21 17:34N 33°23' W 118°19'2121.5
2016-Aug-21 16:33N 33°45' W 118°17'1 0.5
2016-Aug-21 15:33N 33°45' W 118°16'0 0.1
2016-Aug-21 14:33N 33°45' W 118°16'0 0.0
2016-Aug-21 13:29N 33°45' W 118°16'0 0.0
2016-Aug-21 05:33N 33°45' W 118°16'0 0.1
2016-Aug-21 04:33N 33°45' W 118°16'1918.8
2016-Aug-21 03:33N 33°26' W 118°18'6 5.3
2016-Aug-21 02:31N 33°21' W 118°19'2223.3
2016-Aug-21 01:34N 33°43' W 118°15'3 2.7
2016-Aug-21 00:33N 33°45' W 118°16'8 7.8
2016-Aug-20 23:33N 33°37' W 118°15'1716.9
2016-Aug-20 22:33N 33°21' W 118°19'11 8.9
2016-Aug-20 21:22N 33°27' W 118°30'2024.5
2016-Aug-20 20:34N 33°43' W 118°15'2 2.3
2016-Aug-20 19:34N 33°45' W 118°16'4 3.5
2016-Aug-20 18:32N 33°42' W 118°15'2121.9
2016-Aug-20 17:33N 33°21' W 118°19'1716.6
2016-Aug-20 16:33N 33°37' W 118°16'8 7.9
2016-Aug-20 15:33N 33°45' W 118°16'0 0.1
2016-Aug-20 14:33N 33°45' W 118°16'0 0.0
2016-Aug-20 13:33N 33°45' W 118°16'0 0.0
2016-Aug-20 12:33N 33°45' W 118°16'0 0.0
2016-Aug-19 21:33N 33°45' W 118°16'1 1.0
2016-Aug-19 20:33N 33°44' W 118°16'2221.6
2016-Aug-19 19:34N 33°23' W 118°21'2 2.3
2016-Aug-19 18:33N 33°21' W 118°19'5 4.8
2016-Aug-19 17:34N 33°25' W 118°18'2019.6
2016-Aug-19 16:33N 33°45' W 118°16'0 0.1
2016-Aug-19 15:33N 33°45' W 118°16'0 0.0
2016-Aug-19 14:34N 33°45' W 118°16'0 0.0
2016-Aug-19 13:33N 33°45' W 118°16'0 0.0
2016-Aug-19 12:33N 33°45' W 118°16'  
Track history (hours):
 
Tides and Currents Weather Stations Pressure Air Temp Water Temp Dewpoint Dewpoint Depression Visibility Wind Speed Wind Dir Waves Ship Positions

Avalon Express

Owner: RGWT INC, San Pedro, CA. More information available from US FCC via Universal Licensing System and Coast Guard Vessel Documentation Center.

Last reported at 2016-Aug-28 20:33 UTC. Time now 2016-Aug-28 20:39 UTC.
Position N 33°45' W 118°16'.

Type: High speed craft. MMSI: 367192940.

Date/timePositionNaut miles runAvg speedWind from/ knotsBaromVisibWave heightAir tempDewpointWater temp
2016-Aug-28 20:33N 33°45' W 118°16'0 0.0
2016-Aug-28 19:33N 33°45' W 118°16'2118.5
2016-Aug-28 18:25N 33°24' W 118°19'1 1.0
2016-Aug-28 17:33N 33°25' W 118°18'2018.7
2016-Aug-28 16:28N 33°45' W 118°16'0 0.0
2016-Aug-28 01:14N 33°45' W 118°16'0 0.0
2016-Aug-28 00:27N 33°45' W 118°16'7 1.1
2016-Aug-27 18:25N 33°38' W 118°15'1814.4
2016-Aug-27 17:11N 33°21' W 118°19'1524.3
2016-Aug-27 16:33N 33°36' W 118°16'9 6.2
2016-Aug-27 15:09N 33°45' W 118°16'0 0.1
2016-Aug-27 14:33N 33°45' W 118°16'0 0.0
2016-Aug-27 13:33N 33°45' W 118°16'20 1.7
2016-Aug-27 01:32N 33°25' W 118°18'2010.2
2016-Aug-26 23:33N 33°45' W 118°16'2411.9
2016-Aug-26 21:33N 33°21' W 118°19'21 7.0
2016-Aug-26 18:32N 33°42' W 118°15'3 1.3
2016-Aug-26 16:34N 33°40' W 118°15'5 1.7
2016-Aug-26 13:27N 33°45' W 118°16'0 0.1
2016-Aug-26 12:32N 33°45' W 118°16'0 0.0
2016-Aug-26 03:25N 33°45' W 118°16'0 0.1
2016-Aug-26 02:33N 33°45' W 118°16'6 6.0
2016-Aug-26 01:31N 33°39' W 118°16'1815.3
2016-Aug-26 00:20N 33°21' W 118°19'2212.3
2016-Aug-25 22:33N 33°42' W 118°15'3 2.7
2016-Aug-25 21:33N 33°45' W 118°16'2 2.1
2016-Aug-25 20:23N 33°43' W 118°15'2018.8
2016-Aug-25 19:19N 33°28' W 118°31'910.3
2016-Aug-25 18:25N 33°35' W 118°24'1213.7
2016-Aug-25 17:33N 33°45' W 118°16'0 0.1
2016-Aug-25 16:32N 33°45' W 118°16'0 0.0
2016-Aug-25 15:33N 33°45' W 118°16'0 0.0
2016-Aug-25 14:31N 33°45' W 118°16'0 0.0
2016-Aug-25 13:33N 33°45' W 118°16'0 0.0
2016-Aug-25 12:33N 33°45' W 118°16'0 0.0
2016-Aug-25 03:34N 33°45' W 118°16'0 0.1
2016-Aug-25 02:34N 33°45' W 118°16'5 5.4
2016-Aug-25 01:33N 33°40' W 118°15'1918.5
2016-Aug-25 00:30N 33°21' W 118°19'11 9.7
2016-Aug-24 23:24N 33°27' W 118°30'2023.4
2016-Aug-24 22:33N 33°43' W 118°16'2 1.6
2016-Aug-24 21:33N 33°45' W 118°16'2 2.1
2016-Aug-24 20:33N 33°43' W 118°16'2222.4
2016-Aug-24 19:33N 33°21' W 118°19'10 9.8
2016-Aug-24 18:33N 33°30' W 118°18'1513.7
2016-Aug-24 17:30N 33°45' W 118°16'0 0.1
2016-Aug-24 16:34N 33°45' W 118°16'0 0.0
2016-Aug-24 15:33N 33°45' W 118°16'0 0.0
2016-Aug-24 14:33N 33°45' W 118°16'0 0.1
2016-Aug-24 13:33N 33°45' W 118°16'0 0.0
2016-Aug-24 12:33N 33°45' W 118°16'0 0.0
2016-Aug-23 19:33N 33°45' W 118°16'0 0.0
2016-Aug-23 18:34N 33°45' W 118°16'0 0.0
2016-Aug-23 17:33N 33°45' W 118°16'0 0.1
2016-Aug-23 16:34N 33°45' W 118°16'0 0.0
2016-Aug-23 15:33N 33°45' W 118°16'0 0.0
2016-Aug-23 14:33N 33°45' W 118°16'0 0.0
2016-Aug-23 13:33N 33°45' W 118°16'0 0.1
2016-Aug-23 12:34N 33°45' W 118°16'0 0.0
2016-Aug-22 23:33N 33°45' W 118°16'0 0.0
2016-Aug-22 15:33N 33°45' W 118°16'0 0.1
2016-Aug-22 14:34N 33°45' W 118°16'0 0.0
2016-Aug-22 13:34N 33°45' W 118°16'0 0.0
2016-Aug-22 12:33N 33°45' W 118°16'0 0.0
2016-Aug-22 06:34N 33°45' W 118°16'0 0.0
2016-Aug-22 05:31N 33°45' W 118°16'0 0.0
2016-Aug-22 04:34N 33°45' W 118°16'1919.1
2016-Aug-22 03:34N 33°26' W 118°18'0 0.2
2016-Aug-22 02:33N 33°26' W 118°18'1918.9
2016-Aug-22 01:33N 33°45' W 118°16'0 0.0
2016-Aug-22 00:33N 33°45' W 118°16'0 0.0
2016-Aug-21 23:33N 33°45' W 118°16'0 0.0
2016-Aug-21 22:33N 33°45' W 118°16'3 3.2
2016-Aug-21 21:34N 33°42' W 118°15'1917.7
2016-Aug-21 20:28N 33°28' W 118°31'1212.8
2016-Aug-21 19:33N 33°21' W 118°20'0 0.3
2016-Aug-21 18:33N 33°21' W 118°20'2 2.1
2016-Aug-21 17:34N 33°23' W 118°19'2121.5
2016-Aug-21 16:33N 33°45' W 118°17'1 0.5
2016-Aug-21 15:33N 33°45' W 118°16'0 0.1
2016-Aug-21 14:33N 33°45' W 118°16'0 0.0
2016-Aug-21 13:29N 33°45' W 118°16'0 0.0
2016-Aug-21 05:33N 33°45' W 118°16'0 0.1
2016-Aug-21 04:33N 33°45' W 118°16'1918.8
2016-Aug-21 03:33N 33°26' W 118°18'6 5.3
2016-Aug-21 02:31N 33°21' W 118°19'2223.3
2016-Aug-21 01:34N 33°43' W 118°15'3 2.7
2016-Aug-21 00:33N 33°45' W 118°16'8 7.8
2016-Aug-20 23:33N 33°37' W 118°15'1716.9
2016-Aug-20 22:33N 33°21' W 118°19'11 8.9
2016-Aug-20 21:22N 33°27' W 118°30'2024.5
2016-Aug-20 20:34N 33°43' W 118°15'2 2.3
2016-Aug-20 19:34N 33°45' W 118°16'4 3.5
2016-Aug-20 18:32N 33°42' W 118°15'2121.9
2016-Aug-20 17:33N 33°21' W 118°19'1716.6
2016-Aug-20 16:33N 33°37' W 118°16'8 7.9
2016-Aug-20 15:33N 33°45' W 118°16'0 0.1
2016-Aug-20 14:33N 33°45' W 118°16'0 0.0
2016-Aug-20 13:33N 33°45' W 118°16'0 0.0
2016-Aug-20 12:33N 33°45' W 118°16'0 0.0
2016-Aug-19 21:33N 33°45' W 118°16'1 1.0
2016-Aug-19 20:33N 33°44' W 118°16'2221.6
2016-Aug-19 19:34N 33°23' W 118°21'2 2.3
2016-Aug-19 18:33N 33°21' W 118°19'5 4.8
2016-Aug-19 17:34N 33°25' W 118°18'2019.6
2016-Aug-19 16:33N 33°45' W 118°16'0 0.1
2016-Aug-19 15:33N 33°45' W 118°16'0 0.0
2016-Aug-19 14:34N 33°45' W 118°16'0 0.0
2016-Aug-19 13:33N 33°45' W 118°16'0 0.0
2016-Aug-19 12:33N 33°45' W 118°16'  

Dump ship's entire track history